createdAt,value
2023-04-26T01:00:41.365Z,41.30
2023-04-26T01:32:55.496Z,40.53
2023-04-26T01:35:23.921Z,39.97
2023-04-26T01:37:52.513Z,40.63
2023-04-26T01:40:22.606Z,42.47
2023-04-26T01:42:51.105Z,45.88
2023-04-26T01:45:19.694Z,39.28
2023-04-26T01:47:48.194Z,42.42
2023-04-26T01:50:16.760Z,40.72
2023-04-26T01:52:45.234Z,39.88
2023-04-26T01:55:13.781Z,40.00
2023-04-26T01:57:43.712Z,41.13
2023-04-26T02:00:13.371Z,39.33
2023-04-26T02:02:42.197Z,45.63
2023-04-26T02:05:12.991Z,39.15
2023-04-26T02:07:41.591Z,39.80
2023-04-26T02:10:11.136Z,40.80
2023-04-26T02:12:39.705Z,42.08
2023-04-26T02:15:10.974Z,42.40
2023-04-26T02:17:40.231Z,40.08
2023-04-26T02:20:11.530Z,42.42
2023-04-26T02:22:39.912Z,41.72
2023-04-26T02:25:09.551Z,42.40
2023-04-26T02:27:38.080Z,43.67
2023-04-26T02:30:09.845Z,41.80
2023-04-26T02:35:08.693Z,42.58
2023-04-26T02:37:37.448Z,41.00
2023-04-26T02:40:10.536Z,44.05
2023-04-26T02:42:38.961Z,42.08
2023-04-26T02:45:10.236Z,39.35
2023-04-26T02:47:39.004Z,39.53
2023-04-26T02:50:09.670Z,39.25
2023-04-26T02:52:38.553Z,42.95
2023-04-26T02:55:09.028Z,39.13
2023-04-26T02:57:37.875Z,41.30
2023-04-26T03:00:09.560Z,44.55
2023-04-26T03:05:07.304Z,39.67
2023-04-26T03:07:35.743Z,39.28
2023-04-26T03:10:04.947Z,43.05
2023-04-26T03:12:33.446Z,42.25
2023-04-26T03:15:03.491Z,40.28
2023-04-26T03:17:33.364Z,40.40
2023-04-26T03:20:02.917Z,41.90
2023-04-26T03:22:31.488Z,45.28
2023-04-26T03:24:59.895Z,39.85
2023-04-26T03:27:28.510Z,41.17
2023-04-26T03:29:56.933Z,41.83
2023-04-26T03:32:25.626Z,40.85
2023-04-26T03:34:55.502Z,40.55
2023-04-26T03:37:24.373Z,41.75
2023-04-26T03:39:53.854Z,41.17
2023-04-26T03:42:22.720Z,40.08
2023-04-26T03:44:51.108Z,42.83
2023-04-26T03:47:19.582Z,45.03
2023-04-26T03:49:48.031Z,39.55
2023-04-26T03:52:18.040Z,38.65
2023-04-26T03:54:46.611Z,43.38
2023-04-26T03:57:15.043Z,41.28
2023-04-26T03:59:43.821Z,40.42
2023-04-26T04:02:12.352Z,40.40
2023-04-26T04:04:41.092Z,40.58
2023-04-26T04:07:09.734Z,41.75
2023-04-26T04:09:39.581Z,40.38
2023-04-26T04:12:08.342Z,40.25
2023-04-26T04:14:36.910Z,38.92
2023-04-26T04:17:05.307Z,42.67
2023-04-26T04:19:33.774Z,40.42
2023-04-26T04:22:02.253Z,43.60
2023-04-26T04:24:32.270Z,44.15
2023-04-26T04:27:03.448Z,42.33
2023-04-26T04:29:32.798Z,39.05
2023-04-26T04:32:01.255Z,40.80
2023-04-26T04:34:30.284Z,46.38
2023-04-26T04:36:58.857Z,41.83
2023-04-26T04:39:27.333Z,41.55
2023-04-26T04:41:55.780Z,41.60
2023-04-26T04:44:27.144Z,41.20
2023-04-26T04:46:56.785Z,39.70
2023-04-26T04:49:25.624Z,41.78
2023-04-26T04:51:54.054Z,42.33
2023-04-26T04:54:22.534Z,42.60
2023-04-26T04:56:51.294Z,40.20
2023-04-26T04:59:19.736Z,43.88
2023-04-26T05:01:49.647Z,42.05
2023-04-26T05:04:18.337Z,44.55
2023-04-26T05:06:47.046Z,42.53
2023-04-26T05:09:15.469Z,40.80
2023-04-26T05:11:43.965Z,43.20
2023-04-26T05:14:12.612Z,42.03
2023-04-26T05:16:41.548Z,42.60
2023-04-26T05:19:13.409Z,44.30
2023-04-26T05:21:42.127Z,43.78
2023-04-26T05:29:09.292Z,45.83
2023-04-26T05:31:37.867Z,45.50
2023-04-26T05:34:06.467Z,47.83
2023-04-26T05:36:36.609Z,48.10
2023-04-26T13:26:04.532Z,49.70
2023-04-26T13:28:33.095Z,49.97
2023-04-26T13:31:01.714Z,53.83
2023-04-26T13:33:30.319Z,52.17
2023-04-26T13:35:58.860Z,51.80
2023-04-26T13:38:27.312Z,49.50
2023-04-26T13:40:57.182Z,48.13
2023-04-26T13:43:25.995Z,50.88
2023-04-26T13:45:54.506Z,50.17
2023-04-26T13:48:23.122Z,50.20
2023-04-26T13:50:51.759Z,49.25
2023-04-26T13:53:20.682Z,48.90
2023-04-26T13:55:49.244Z,46.20
2023-04-26T13:58:19.129Z,47.42
2023-04-26T14:00:47.684Z,69.72
2023-04-26T14:03:16.512Z,68.80
2023-04-26T14:05:45.063Z,58.55
2023-04-26T14:08:13.930Z,46.70
2023-04-26T14:10:42.548Z,46.83
2023-04-26T14:13:11.822Z,48.63
2023-04-26T14:15:41.800Z,47.83
2023-04-26T14:18:10.450Z,48.00
2023-04-26T14:20:38.904Z,49.90
2023-04-26T14:23:07.351Z,47.42
2023-04-26T14:25:35.859Z,47.28
2023-04-26T14:28:04.607Z,47.60
2023-04-26T14:30:33.034Z,48.20
2023-04-26T14:33:02.991Z,48.90
2023-04-26T14:35:31.689Z,49.50
2023-04-26T14:38:00.239Z,49.13
2023-04-26T14:40:28.628Z,49.10
2023-04-26T14:42:57.069Z,49.33
2023-04-26T14:45:36.889Z,48.80
2023-04-26T14:48:13.857Z,47.75
2023-04-26T14:50:42.455Z,47.90
2023-04-26T14:53:11.258Z,48.33
2023-04-26T14:55:39.765Z,47.00
2023-04-26T14:58:08.686Z,48.38
2023-04-26T15:00:38.106Z,48.25
2023-04-26T15:03:06.992Z,48.67
2023-04-26T15:05:36.994Z,54.00
2023-04-26T15:08:06.483Z,51.83
2023-04-26T15:10:34.897Z,49.95
2023-04-26T15:13:04.380Z,48.63
2023-04-26T15:15:32.883Z,49.88
2023-04-26T15:18:01.967Z,49.15
2023-04-26T15:20:30.767Z,48.10
2023-04-26T15:23:00.656Z,49.63
2023-04-26T15:25:29.075Z,47.67
2023-04-26T15:27:57.862Z,50.25
2023-04-26T15:30:26.682Z,47.00
2023-04-26T15:32:55.207Z,50.10
2023-04-26T15:35:25.181Z,47.67
2023-04-26T15:37:54.195Z,47.10
2023-04-26T15:40:24.715Z,46.78
2023-04-26T20:48:27.777Z,48.30
2023-04-26T20:50:58.765Z,47.28
2023-04-26T20:53:27.378Z,43.60
2023-04-26T20:55:56.003Z,44.58
2023-04-26T20:58:24.457Z,45.30
2023-04-26T21:00:54.008Z,45.92
2023-04-26T21:03:23.073Z,46.00
2023-04-26T21:05:51.868Z,46.75
2023-04-26T21:08:21.916Z,50.25
2023-04-26T21:10:50.524Z,44.70
2023-04-26T21:13:19.111Z,44.65
2023-04-26T21:15:48.399Z,54.60
2023-04-26T21:18:17.329Z,45.60
2023-04-26T21:20:45.906Z,44.58
2023-04-26T21:23:14.659Z,42.22
2023-04-26T21:25:48.356Z,43.45
2023-04-26T21:28:17.116Z,42.15
2023-04-26T21:30:45.803Z,46.58
2023-04-26T21:33:15.977Z,42.10
2023-04-26T21:35:44.516Z,42.47
2023-04-26T21:38:13.034Z,43.55
2023-04-26T21:40:41.615Z,42.40
2023-04-26T21:43:11.541Z,42.42
2023-04-26T21:45:39.989Z,45.65
2023-04-26T21:48:08.710Z,45.15
2023-04-26T21:50:37.340Z,46.35
2023-04-26T21:53:06.428Z,46.80
2023-04-26T21:55:34.910Z,44.75
2023-04-26T21:58:03.403Z,43.67
2023-04-26T22:00:33.641Z,44.85
2023-04-26T22:03:02.369Z,42.55
2023-04-26T22:05:30.929Z,43.08
2023-04-26T22:07:59.463Z,42.70
2023-04-26T22:10:28.094Z,45.55
2023-04-26T22:12:56.624Z,44.58
2023-04-26T22:17:54.887Z,46.05
2023-04-26T22:20:23.409Z,46.38
2023-04-26T22:22:52.310Z,48.35
2023-04-26T22:25:20.782Z,44.72
2023-04-26T22:27:49.898Z,49.42
2023-04-26T22:30:25.424Z,46.58
2023-04-26T22:37:55.082Z,46.33
2023-04-26T22:40:23.717Z,44.92
2023-04-26T22:42:52.331Z,41.28
2023-04-26T22:45:21.467Z,42.25
2023-04-26T22:47:50.125Z,42.47
2023-04-26T22:50:20.063Z,43.90
2023-04-26T22:52:49.892Z,43.85
2023-04-26T22:55:18.559Z,44.78
2023-04-26T22:57:47.612Z,43.88
2023-04-26T23:00:16.719Z,41.90
2023-04-26T23:02:45.547Z,45.20
2023-04-26T23:05:14.192Z,45.30
2023-04-26T23:07:44.178Z,41.33
2023-04-26T23:10:13.416Z,47.83
2023-04-26T23:12:41.971Z,44.50
2023-04-26T23:15:11.745Z,43.95
2023-04-26T23:17:41.946Z,43.83
2023-04-26T23:20:18.372Z,42.83
2023-04-26T23:22:48.223Z,47.90
2023-04-26T23:25:16.693Z,54.22
2023-04-26T23:27:45.174Z,48.50
2023-04-26T23:30:15.113Z,42.78
2023-04-26T23:32:43.729Z,45.47
2023-04-26T23:35:12.179Z,45.45
2023-04-26T23:37:40.993Z,44.90
2023-04-26T23:40:12.195Z,44.97
2023-04-26T23:42:40.657Z,41.35
2023-04-26T23:45:11.626Z,48.33
2023-04-26T23:47:40.261Z,44.85
2023-04-26T23:50:09.605Z,45.75
2023-04-26T23:52:38.093Z,42.90
2023-04-26T23:55:08.122Z,43.47
2023-04-26T23:57:40.748Z,42.35
